Hub


Voltar

 INFORMAÇÕES METEOROLÓGICAS

METAR FOR LQSA


ADDS - METARS form results

(0710 UTC 22 April 2019)
Data provider http://aviationweather.gov/metar/data/
 
METAR text: LQSA 220700Z VRB01KT CAVOK 10/07 Q1018 NOSIG
Conditions at: LQSA (SARAJEVO/BUTMIR , CS) observed 0700 UTC 22 April 2019
Temperature: 10.0°C (50°F)
Dewpoint: 7.0°C (45°F) [RH = 82%]
Pressure (altimeter): 30.06 inches Hg (1018.0 mb)
Winds: variable direction winds at 1 MPH (1 knots; 0.5 m/s)
Visibility: 6 or more miles (10+ km)
Ceiling: ceiling and visibility are OK
Clouds: unknown
Weather: no significant weather observed at this time

METAR text: LQSA 220630Z VRB02KT CAVOK 09/06 Q1018 NOSIG
Conditions at: LQSA (SARAJEVO/BUTMIR , CS) observed 0630 UTC 22 April 2019
Temperature: 9.0°C (48°F)
Dewpoint: 6.0°C (43°F) [RH = 81%]
Pressure (altimeter): 30.06 inches Hg (1018.0 mb)
Winds: variable direction winds at 2 MPH (2 knots; 1.0 m/s)
Visibility: 6 or more miles (10+ km)
Ceiling: ceiling and visibility are OK
Clouds: unknown
Weather: no significant weather observed at this time

Forecast for: LQSA (SARAJEVO/BUTMIR , CS)
Text: TAF LQSA 220500Z 2206/2306 15005KT CAVOK TX24/2214Z TN05/2304Z
Forecast period: 0600 UTC 22 April 2019 to 0600 UTC 23 April 2019
Forecast type: FROM: standard forecast or significant change
Winds: from the SSE (150 degrees) at 6 MPH (5 knots; 2.6 m/s)
Visibility: 6 or more miles 10+ km)
Ceiling: unknown
Clouds: missing
Weather: no significant weather forecast for this period
Text: TEMPO 2222/2304 3000 SHRA SCT010 FEW030TCU BKN040
Forecast period: 2200 UTC 22 April 2019 to 0400 UTC 23 April 2019
Forecast type: TEMPORARY: The following changes expected for less than half the time period
Visibility: 1.86 miles (2.99 km)
Ceiling: 4000 feet AGL
Clouds: scattered clouds at 1000 feet AGL
few clouds at 3000 feet AGL
broken clouds at 4000 feet AGL
Weather: SHRA  (rain showers)


 MAPA DO AEROPORTO


 INFORMAÇÕES DA PISTA

Pista 12 Tamanho da pista 8666 ft Largura da pista 150 ft
Elevação da pista 1643 ft Ranhura da pista 333 ft Proa da pista 117
Pista 30 Tamanho da pista 8666 ft Largura da pista 150 ft
Elevação da pista 1690 ft Ranhura da pista 1666 ft Proa da pista 297

 FREQUÊNCIAS DO AEROPORTO

Tipo APP Nome APP Frequência 136.45 MHZ
Tipo GCA Nome GCA Frequência 119.4 MHZ
Tipo GND Nome GND Frequência 121.9 MHZ
Tipo TWR Nome TWR Frequência 118.25 MHZ

 AUXÍLIOS DE NAVEGAÇÃO PRÓXIMOS AO AEROPORTO

Tipo NDB Nome Sarajevo Frequência 436 KHZ
Tipo VOR-DME Nome Sarajevo Frequência 116700 KHZ
Tipo NDB Nome Kobiljaca Frequência 358 KHZ
Tipo VORTAC Nome Sarajevo Frequência 108850 KHZ